createdAt,value
2022-10-28T00:01:03.979Z,79.90
2022-10-28T00:03:30.816Z,80.50
2022-10-28T00:06:05.217Z,79.60
2022-10-28T00:08:32.618Z,80.90
2022-10-28T00:11:09.687Z,81.30
2022-10-28T00:13:37.218Z,80.80
2022-10-28T00:16:11.135Z,81.30
2022-10-28T00:18:38.296Z,80.90
2022-10-28T00:21:10.119Z,81.00
2022-10-28T00:23:36.929Z,81.20
2022-10-28T00:26:15.258Z,80.70
2022-10-28T00:28:43.708Z,80.60
2022-10-28T00:31:12.022Z,79.30
2022-10-28T00:33:38.694Z,80.50
2022-10-28T00:36:17.454Z,80.60
2022-10-28T00:38:45.960Z,80.40
2022-10-28T00:41:15.373Z,81.80
2022-10-28T00:43:43.415Z,81.80
2022-10-28T00:46:38.676Z,81.60
2022-10-28T00:49:22.522Z,81.70
2022-10-28T00:51:53.956Z,83.10
2022-10-28T00:54:21.123Z,83.30
2022-10-28T00:56:50.983Z,82.90
2022-10-28T00:59:24.941Z,82.20
2022-10-28T01:01:52.062Z,82.70
2022-10-28T01:04:19.371Z,82.80
2022-10-28T01:06:46.859Z,83.70
2022-10-28T01:09:13.700Z,83.70
2022-10-28T01:12:09.784Z,85.00
2022-10-28T01:14:42.337Z,84.10
2022-10-28T01:17:27.571Z,84.40
2022-10-28T01:20:03.740Z,83.80
2022-10-28T01:22:43.061Z,84.40
2022-10-28T01:25:45.521Z,84.40
2022-10-28T01:28:14.074Z,84.40
2022-10-28T01:31:00.972Z,83.70
2022-10-28T01:33:36.445Z,84.50
2022-10-28T01:36:09.705Z,85.50
2022-10-28T01:38:47.310Z,85.50
2022-10-28T01:41:37.699Z,86.80
2022-10-28T01:44:25.062Z,85.70
2022-10-28T01:47:11.926Z,84.40
2022-10-28T01:49:42.577Z,86.10
2022-10-28T01:52:14.446Z,85.50
2022-10-28T01:54:43.573Z,85.50
2022-10-28T01:57:12.744Z,83.70
2022-10-28T01:59:40.118Z,84.70
2022-10-28T02:02:06.917Z,85.30
2022-10-28T02:04:33.617Z,84.40
2022-10-28T02:07:01.030Z,84.50
2022-10-28T02:09:52.623Z,85.20
2022-10-28T02:12:39.507Z,85.60
2022-10-28T02:15:20.962Z,84.40
2022-10-28T02:17:53.832Z,85.40
2022-10-28T02:20:39.563Z,83.70
2022-10-28T02:23:27.819Z,84.40
2022-10-28T02:26:14.484Z,84.00
2022-10-28T02:28:58.770Z,84.10
2022-10-28T02:31:30.706Z,84.90
2022-10-28T02:34:09.510Z,84.50
2022-10-28T02:36:39.299Z,84.40
2022-10-28T02:39:07.028Z,84.50
2022-10-28T02:41:39.716Z,84.60
2022-10-28T02:44:17.793Z,84.50
2022-10-28T02:46:47.398Z,84.90
2022-10-28T02:49:15.281Z,85.00
2022-10-28T02:51:48.694Z,84.70
2022-10-28T02:54:18.566Z,85.00
2022-10-28T02:56:53.046Z,84.50
2022-10-28T02:59:19.893Z,85.20
2022-10-28T03:01:46.636Z,85.10
2022-10-28T03:04:13.408Z,84.50
2022-10-28T03:06:40.066Z,85.70
2022-10-28T03:09:06.871Z,85.70
2022-10-28T03:11:34.020Z,86.50
2022-10-28T03:14:00.677Z,85.90
2022-10-28T03:16:27.323Z,86.30
2022-10-28T03:18:54.172Z,86.90
2022-10-28T03:21:21.069Z,87.80
2022-10-28T03:23:47.738Z,88.90
2022-10-28T03:26:15.463Z,87.40
2022-10-28T03:28:42.122Z,88.00
2022-10-28T03:31:08.775Z,88.30
2022-10-28T03:33:35.453Z,90.50
2022-10-28T03:36:02.193Z,88.30
2022-10-28T03:38:28.870Z,89.20
2022-10-28T03:40:55.524Z,90.00
2022-10-28T03:43:22.174Z,90.10
2022-10-28T03:45:49.092Z,90.00
2022-10-28T03:48:15.784Z,89.10
2022-10-28T03:50:42.431Z,90.30
2022-10-28T03:53:09.313Z,90.20
2022-10-28T03:55:36.017Z,89.80
2022-10-28T03:58:02.956Z,90.70
2022-10-28T04:00:29.975Z,90.80
2022-10-28T04:02:56.825Z,91.30
2022-10-28T04:05:23.736Z,91.60
2022-10-28T04:07:50.679Z,91.50
2022-10-28T04:10:17.437Z,91.30
2022-10-28T04:12:44.102Z,91.30
2022-10-28T04:15:10.826Z,92.00
2022-10-28T04:17:37.518Z,92.40
2022-10-28T04:20:04.743Z,92.80
2022-10-28T04:22:31.493Z,92.40
2022-10-28T04:24:58.226Z,92.30
2022-10-28T04:27:24.923Z,91.90
2022-10-28T04:29:51.571Z,91.70
2022-10-28T04:32:18.263Z,91.60
2022-10-28T04:34:44.908Z,91.70
2022-10-28T04:37:11.601Z,92.10
2022-10-28T04:39:38.227Z,92.40
2022-10-28T04:42:04.878Z,92.00
2022-10-28T04:44:31.592Z,91.50
2022-10-28T04:46:58.237Z,91.80
2022-10-28T04:49:24.894Z,91.10
2022-10-28T04:51:51.723Z,92.20
2022-10-28T04:54:18.368Z,92.20
2022-10-28T04:56:45.023Z,92.60
2022-10-28T04:59:11.677Z,92.40
2022-10-28T05:01:38.438Z,91.80
2022-10-28T05:04:05.271Z,92.50
2022-10-28T05:06:31.960Z,91.90
2022-10-28T05:08:58.568Z,91.80
2022-10-28T05:11:25.280Z,92.80
2022-10-28T05:13:53.191Z,92.20
2022-10-28T05:16:20.268Z,92.50
2022-10-28T05:18:47.271Z,92.60
2022-10-28T05:21:14.250Z,91.70
2022-10-28T05:23:41.159Z,92.40
2022-10-28T05:26:08.143Z,91.80
2022-10-28T05:28:34.834Z,92.20
2022-10-28T05:31:01.513Z,92.60
2022-10-28T05:33:28.142Z,92.10
2022-10-28T05:35:54.795Z,92.00
2022-10-28T05:38:21.444Z,92.30
2022-10-28T05:40:48.139Z,91.60
2022-10-28T05:43:14.795Z,92.30
2022-10-28T05:45:41.434Z,92.70
2022-10-28T05:48:08.130Z,92.80
2022-10-28T05:50:34.795Z,92.60
2022-10-28T05:53:01.693Z,93.00
2022-10-28T05:55:29.526Z,93.00
2022-10-28T05:57:57.267Z,92.90
2022-10-28T06:00:25.620Z,92.80
2022-10-28T06:02:52.670Z,93.10
2022-10-28T06:05:19.886Z,93.10
2022-10-28T06:07:46.542Z,93.10
2022-10-28T06:10:13.579Z,92.30
2022-10-28T06:12:38.802Z,93.10
2022-10-28T06:15:06.150Z,93.70
2022-10-28T06:17:32.818Z,93.10
2022-10-28T06:19:59.581Z,93.10
2022-10-28T06:22:26.314Z,93.80
2022-10-28T06:24:52.932Z,92.80
2022-10-28T06:27:19.544Z,93.00
2022-10-28T06:29:46.503Z,92.80
2022-10-28T06:32:13.240Z,93.20
2022-10-28T06:34:40.454Z,93.60
2022-10-28T06:37:08.912Z,93.80
2022-10-28T06:39:37.067Z,92.40
2022-10-28T06:42:06.645Z,92.40
2022-10-28T06:44:33.334Z,92.30
2022-10-28T06:47:01.567Z,93.30
2022-10-28T06:49:29.524Z,93.10
2022-10-28T06:52:06.532Z,92.70
2022-10-28T06:54:33.440Z,92.80
2022-10-28T06:57:00.456Z,94.20
2022-10-28T06:59:27.265Z,95.10
2022-10-28T07:01:53.983Z,92.60
2022-10-28T07:04:23.743Z,92.50
2022-10-28T07:06:57.361Z,92.20
2022-10-28T07:09:46.975Z,92.10
2022-10-28T07:14:43.199Z,93.10
2022-10-28T07:17:09.914Z,91.70
2022-10-28T07:19:36.575Z,91.60
2022-10-28T07:22:03.241Z,91.70
2022-10-28T07:24:29.870Z,91.80
2022-10-28T07:26:57.867Z,91.80
2022-10-28T07:29:24.728Z,91.70
2022-10-28T07:31:54.677Z,92.50
2022-10-28T07:34:26.753Z,92.70
2022-10-28T07:36:55.086Z,93.10
2022-10-28T07:39:21.913Z,91.30
2022-10-28T07:41:48.706Z,90.80
2022-10-28T07:44:15.463Z,90.90
2022-10-28T07:46:42.200Z,91.80
2022-10-28T07:49:08.891Z,93.20
2022-10-28T07:51:35.578Z,91.70
2022-10-28T07:54:02.534Z,92.00
2022-10-28T07:56:29.184Z,92.20
2022-10-28T07:58:55.815Z,92.80
2022-10-28T08:01:22.740Z,93.00
2022-10-28T08:03:49.463Z,92.80
2022-10-28T08:06:20.882Z,91.30
2022-10-28T08:08:48.474Z,91.10
2022-10-28T08:11:18.992Z,91.10
2022-10-28T08:13:46.949Z,91.60
2022-10-28T08:16:13.752Z,91.00
2022-10-28T08:18:40.520Z,91.60
2022-10-28T08:21:08.855Z,91.10
2022-10-28T08:23:36.094Z,91.40
2022-10-28T08:26:02.971Z,90.50
2022-10-28T08:28:31.658Z,90.70
2022-10-28T08:31:10.474Z,91.30
2022-10-28T08:33:39.336Z,90.40
2022-10-28T08:36:07.273Z,90.60
2022-10-28T08:38:34.502Z,90.70
2022-10-28T08:41:35.990Z,90.90
2022-10-28T08:44:36.780Z,92.20
2022-10-28T08:47:16.385Z,92.30
2022-10-28T08:49:47.100Z,92.20
2022-10-28T08:52:25.044Z,93.00
2022-10-28T08:55:05.064Z,93.00
2022-10-28T08:57:57.156Z,92.70
2022-10-28T09:00:29.628Z,93.40
2022-10-28T09:03:11.645Z,93.50
2022-10-28T09:05:39.927Z,93.90
2022-10-28T09:08:09.177Z,93.80
2022-10-28T09:10:45.321Z,94.60
2022-10-28T09:13:28.315Z,93.80
2022-10-28T09:16:00.978Z,94.70
2022-10-28T09:18:58.154Z,94.10
2022-10-28T09:21:48.839Z,93.80
2022-10-28T09:24:25.978Z,94.30
2022-10-28T09:27:03.328Z,94.80
2022-10-28T09:29:44.580Z,94.50
2022-10-28T09:32:30.987Z,94.70
2022-10-28T09:35:08.827Z,94.50
2022-10-28T09:37:39.188Z,94.20
2022-10-28T09:40:22.750Z,94.30
2022-10-28T09:42:53.597Z,93.60
2022-10-28T09:45:23.748Z,94.40
2022-10-28T09:48:09.440Z,94.30
2022-10-28T09:50:36.283Z,93.90
2022-10-28T09:53:02.943Z,94.40
2022-10-28T09:55:30.013Z,95.30
2022-10-28T09:57:57.083Z,94.00
2022-10-28T10:00:25.216Z,94.40
2022-10-28T10:02:58.806Z,94.50
2022-10-28T10:05:26.223Z,95.00
2022-10-28T10:07:58.650Z,95.30
2022-10-28T10:10:45.758Z,94.30
2022-10-28T10:13:13.673Z,95.50
2022-10-28T10:15:48.654Z,96.40
2022-10-28T10:18:23.789Z,97.60
2022-10-28T10:20:52.657Z,97.50
2022-10-28T10:26:09.547Z,97.00
2022-10-28T10:28:47.500Z,96.60
2022-10-28T10:31:20.660Z,96.40
2022-10-28T10:33:53.021Z,96.90
2022-10-28T10:36:23.621Z,96.20
2022-10-28T10:38:55.407Z,96.10
2022-10-28T10:41:42.881Z,95.90
2022-10-28T10:44:21.514Z,94.30
2022-10-28T10:47:04.973Z,94.30
2022-10-28T10:49:34.405Z,93.30
2022-10-28T10:52:04.218Z,92.90
2022-10-28T10:54:32.759Z,93.00
2022-10-28T10:57:19.951Z,93.00
2022-10-28T10:59:48.890Z,92.80
2022-10-28T11:02:44.997Z,92.90
2022-10-28T11:05:12.153Z,92.40
2022-10-28T11:07:45.052Z,92.40
2022-10-28T11:10:26.874Z,93.70
2022-10-28T11:12:56.093Z,94.80
2022-10-28T11:15:28.318Z,95.50
2022-10-28T11:17:57.170Z,95.30
2022-10-28T11:20:38.005Z,94.50
2022-10-28T11:23:29.232Z,93.30
2022-10-28T11:25:59.109Z,93.10
2022-10-28T11:28:37.093Z,91.90
2022-10-28T11:31:29.151Z,91.50
2022-10-28T11:34:23.293Z,92.00
2022-10-28T11:37:19.257Z,92.30
2022-10-28T11:40:13.488Z,90.00
2022-10-28T11:42:43.305Z,90.10
2022-10-28T11:45:37.628Z,89.10
2022-10-28T11:48:22.697Z,90.20
2022-10-28T11:50:54.458Z,90.80
2022-10-28T11:53:45.629Z,88.70
2022-10-28T11:56:36.686Z,88.50
2022-10-28T11:59:15.438Z,88.10
2022-10-28T12:01:44.986Z,84.20
2022-10-28T12:04:14.549Z,85.90
2022-10-28T12:07:03.100Z,86.30
2022-10-28T12:09:59.379Z,82.60
2022-10-28T12:12:41.369Z,86.10
2022-10-28T12:15:26.093Z,87.10
2022-10-28T12:18:01.993Z,88.30
2022-10-28T12:20:35.842Z,90.40
2022-10-28T12:23:08.744Z,90.50
2022-10-28T12:25:39.657Z,90.20
2022-10-28T12:28:20.930Z,88.60
2022-10-28T12:30:48.959Z,90.00
2022-10-28T12:33:35.600Z,90.20
2022-10-28T12:36:08.255Z,89.50
2022-10-28T12:38:40.641Z,90.40
2022-10-28T12:41:16.092Z,91.00
2022-10-28T12:44:04.302Z,90.80
2022-10-28T12:46:57.455Z,90.60
2022-10-28T12:49:34.791Z,91.10
2022-10-28T12:52:08.331Z,91.80
2022-10-28T12:54:53.701Z,91.30
2022-10-28T12:57:22.668Z,90.90
2022-10-28T12:59:53.820Z,91.20
2022-10-28T13:02:25.998Z,91.00
2022-10-28T13:04:52.967Z,89.10
2022-10-28T13:07:25.847Z,88.10
2022-10-28T13:10:17.990Z,90.00
2022-10-28T13:12:50.676Z,90.30
2022-10-28T13:15:40.388Z,90.20
2022-10-28T13:18:15.770Z,87.20
2022-10-28T13:20:51.168Z,83.50
2022-10-28T13:23:37.442Z,89.80
2022-10-28T13:26:24.076Z,86.40
2022-10-28T13:28:54.177Z,87.80
2022-10-28T13:31:21.161Z,86.00
2022-10-28T13:33:59.574Z,81.60
2022-10-28T13:36:29.598Z,75.20
2022-10-28T13:39:02.028Z,68.70
2022-10-28T13:41:49.214Z,70.10
2022-10-28T13:44:55.488Z,65.40
2022-10-28T13:47:25.217Z,59.40
2022-10-28T13:50:10.940Z,57.40
2022-10-28T13:52:45.231Z,57.60
2022-10-28T13:55:25.873Z,50.70
2022-10-28T13:58:04.842Z,51.00
2022-10-28T14:00:31.494Z,50.50
2022-10-28T14:03:02.585Z,47.60
2022-10-28T14:05:38.339Z,45.80
2022-10-28T14:08:24.538Z,52.10
2022-10-28T14:11:01.074Z,51.80
2022-10-28T14:13:27.991Z,44.30
2022-10-28T14:16:24.725Z,51.00
2022-10-28T14:19:02.706Z,48.00
2022-10-28T14:22:01.796Z,48.90
2022-10-28T14:24:40.571Z,43.70
2022-10-28T14:27:13.938Z,47.30
2022-10-28T14:30:10.517Z,48.10
2022-10-28T14:32:43.206Z,47.90
2022-10-28T14:35:15.587Z,49.70
2022-10-28T14:38:27.798Z,48.40
2022-10-28T14:41:16.438Z,49.40
2022-10-28T14:44:07.355Z,50.80
2022-10-28T14:47:12.887Z,51.90
2022-10-28T14:49:40.316Z,51.50
2022-10-28T14:52:12.166Z,52.30
2022-10-28T14:54:47.202Z,51.10
2022-10-28T14:57:14.198Z,52.80
2022-10-28T14:59:42.994Z,53.30
2022-10-28T15:02:27.540Z,51.50
2022-10-28T15:05:12.650Z,51.50
2022-10-28T15:07:40.020Z,49.80
2022-10-28T15:10:14.315Z,49.90
2022-10-28T15:12:45.983Z,50.00
2022-10-28T15:15:20.101Z,51.60
2022-10-28T15:17:47.043Z,50.50
2022-10-28T15:20:26.593Z,51.70
2022-10-28T15:22:54.648Z,51.80
2022-10-28T15:25:22.841Z,51.80
2022-10-28T15:27:53.007Z,52.70
2022-10-28T15:30:24.946Z,52.10
2022-10-28T15:32:52.462Z,52.40
2022-10-28T15:35:28.199Z,52.10
2022-10-28T15:37:55.683Z,53.40
2022-10-28T15:40:29.140Z,54.60
2022-10-28T15:42:59.268Z,52.80
2022-10-28T15:45:31.608Z,53.90
2022-10-28T15:47:59.741Z,53.70
2022-10-28T15:50:32.198Z,53.60
2022-10-28T15:53:10.714Z,54.60
2022-10-28T15:56:02.921Z,54.60
2022-10-28T15:58:41.971Z,55.90
2022-10-28T16:01:25.280Z,54.90
2022-10-28T16:03:52.054Z,55.40
2022-10-28T16:06:33.694Z,56.20
2022-10-28T16:09:09.868Z,58.10
2022-10-28T16:11:41.399Z,57.90
2022-10-28T16:14:25.665Z,57.50
2022-10-28T16:16:52.535Z,56.90
2022-10-28T16:19:29.525Z,57.80
2022-10-28T16:21:56.278Z,55.70
2022-10-28T16:24:23.032Z,54.20
2022-10-28T16:26:49.756Z,53.60
2022-10-28T16:29:16.542Z,54.70
2022-10-28T16:31:50.684Z,55.20
2022-10-28T16:34:17.521Z,54.30
2022-10-28T16:36:44.288Z,55.60
2022-10-28T16:39:14.158Z,55.70
2022-10-28T16:41:41.056Z,56.40
2022-10-28T16:44:17.431Z,56.40
2022-10-28T16:46:44.250Z,55.50
2022-10-28T16:49:11.886Z,55.70
2022-10-28T16:51:39.147Z,56.40
2022-10-28T16:54:05.963Z,56.90
2022-10-28T16:56:32.713Z,57.50
2022-10-28T16:58:59.378Z,57.10
2022-10-28T17:01:26.254Z,58.60
2022-10-28T17:03:53.182Z,58.30
2022-10-28T17:06:19.946Z,58.10
2022-10-28T17:09:02.368Z,59.10
2022-10-28T17:13:58.019Z,59.50
2022-10-28T17:16:25.414Z,61.10
2022-10-28T17:18:52.091Z,61.20
2022-10-28T17:21:18.815Z,61.90
2022-10-28T17:23:45.516Z,62.80
2022-10-28T17:26:12.234Z,63.90
2022-10-28T17:28:38.923Z,64.10
2022-10-28T17:31:07.287Z,63.40
2022-10-28T17:33:34.256Z,63.70
2022-10-28T17:36:05.931Z,63.70
2022-10-28T17:38:32.883Z,64.00
2022-10-28T17:40:59.813Z,65.10
2022-10-28T17:43:26.643Z,66.10
2022-10-28T17:45:55.979Z,66.00
2022-10-28T17:48:22.666Z,67.00
2022-10-28T17:50:55.618Z,65.90
2022-10-28T17:53:22.309Z,66.50
2022-10-28T17:55:59.222Z,67.50
2022-10-28T17:58:26.440Z,66.80
2022-10-28T18:01:00.583Z,67.20
2022-10-28T18:03:29.959Z,66.60
2022-10-28T18:06:03.560Z,67.80
2022-10-28T18:08:34.880Z,64.10
2022-10-28T18:11:01.715Z,66.20
2022-10-28T18:13:30.133Z,66.40
2022-10-28T18:15:58.257Z,66.10
2022-10-28T18:18:27.696Z,64.80
2022-10-28T18:20:54.860Z,65.40
2022-10-28T18:23:22.568Z,66.40
2022-10-28T18:26:02.362Z,66.50
2022-10-28T18:28:33.277Z,64.30
2022-10-28T18:31:11.592Z,62.00
2022-10-28T18:33:38.719Z,59.20
2022-10-28T18:36:07.789Z,61.70
2022-10-28T18:38:34.661Z,61.60
2022-10-28T18:41:01.757Z,62.10
2022-10-28T18:43:28.593Z,62.10
2022-10-28T18:45:59.654Z,62.90
2022-10-28T18:48:26.323Z,62.10
2022-10-28T18:51:00.579Z,62.80
2022-10-28T18:53:27.602Z,63.80
2022-10-28T18:56:00.271Z,64.10
2022-10-28T18:58:27.539Z,64.50
2022-10-28T19:01:02.358Z,65.30
2022-10-28T19:03:29.028Z,65.40
2022-10-28T19:06:01.429Z,66.20
2022-10-28T19:08:28.134Z,66.40
2022-10-28T19:10:58.576Z,66.70
2022-10-28T19:13:25.281Z,67.20
2022-10-28T19:15:52.226Z,68.10
2022-10-28T19:18:19.458Z,68.50
2022-10-28T19:20:46.552Z,68.30
2022-10-28T19:23:13.382Z,68.80
2022-10-28T19:39:03.277Z,71.70
2022-10-28T19:41:30.493Z,71.90
2022-10-28T19:43:59.664Z,73.20
2022-10-28T19:46:28.049Z,73.40
2022-10-28T19:48:56.740Z,73.20
2022-10-28T19:51:27.205Z,73.90
2022-10-28T19:53:58.835Z,74.80
2022-10-28T19:56:26.493Z,75.10
2022-10-28T19:58:55.427Z,74.00
2022-10-28T20:01:23.880Z,74.90
2022-10-28T20:03:51.758Z,74.70
2022-10-28T20:06:20.268Z,74.30
2022-10-28T20:08:48.092Z,74.80
2022-10-28T20:11:25.786Z,75.10
2022-10-28T20:14:08.941Z,73.70
2022-10-28T20:16:36.172Z,74.50
2022-10-28T20:19:03.292Z,74.00
2022-10-28T20:21:31.533Z,74.60
2022-10-28T20:23:58.884Z,74.30
2022-10-28T20:26:30.565Z,74.30
2022-10-28T20:28:57.952Z,74.80
2022-10-28T20:31:27.503Z,74.60
2022-10-28T20:34:03.605Z,73.60
2022-10-28T20:36:32.428Z,74.50
2022-10-28T20:39:01.063Z,73.60
2022-10-28T20:41:29.997Z,73.70
2022-10-28T20:43:56.966Z,74.10
2022-10-28T20:46:24.488Z,74.50
2022-10-28T20:48:54.096Z,74.20
2022-10-28T20:51:22.067Z,74.70
2022-10-28T20:53:48.970Z,74.00
2022-10-28T20:56:17.663Z,74.20
2022-10-28T20:58:44.632Z,74.90
2022-10-28T21:01:21.671Z,74.80
2022-10-28T21:03:49.199Z,75.00
2022-10-28T21:06:17.142Z,76.90
2022-10-28T21:08:43.948Z,76.80
2022-10-28T21:11:15.431Z,76.30
2022-10-28T21:13:42.676Z,77.20
2022-10-28T21:16:11.297Z,77.20
2022-10-28T21:18:39.116Z,78.00
2022-10-28T21:21:06.406Z,78.40
2022-10-28T21:23:33.227Z,79.60
2022-10-28T21:26:02.019Z,79.60
2022-10-28T21:28:30.097Z,79.50
2022-10-28T21:31:26.102Z,79.40
2022-10-28T21:33:53.531Z,79.30
2022-10-28T21:36:21.889Z,80.50
2022-10-28T21:38:48.610Z,80.60
2022-10-28T21:41:17.477Z,80.00
2022-10-28T21:43:48.053Z,79.40
2022-10-28T21:46:15.951Z,80.50
2022-10-28T21:48:43.065Z,81.00
2022-10-28T21:51:14.393Z,81.00
2022-10-28T21:53:42.558Z,80.50
2022-10-28T21:56:16.706Z,82.10
2022-10-28T21:58:44.682Z,81.60
2022-10-28T22:01:13.932Z,81.20
2022-10-28T22:03:40.957Z,80.90
2022-10-28T22:06:07.912Z,81.60
2022-10-28T22:08:34.877Z,82.80
2022-10-28T22:11:18.895Z,82.90
2022-10-28T22:13:45.752Z,83.50
2022-10-28T22:16:14.808Z,83.60
2022-10-28T22:18:42.197Z,83.80
2022-10-28T22:21:16.119Z,83.40
2022-10-28T22:23:43.329Z,82.40
2022-10-28T22:26:16.010Z,82.60
2022-10-28T22:28:42.927Z,83.00
2022-10-28T22:31:12.346Z,83.20
2022-10-28T22:33:39.488Z,81.30
2022-10-28T22:36:17.981Z,83.20
2022-10-28T22:38:44.894Z,82.40
2022-10-28T22:41:15.773Z,82.90
2022-10-28T22:43:43.827Z,83.90
2022-10-28T22:46:11.178Z,84.70
2022-10-28T22:48:37.967Z,84.40
2022-10-28T22:51:05.082Z,84.60
2022-10-28T22:53:31.940Z,85.00
2022-10-28T22:55:58.763Z,84.20
2022-10-28T22:58:27.539Z,83.60
2022-10-28T23:01:04.220Z,83.90
2022-10-28T23:03:36.050Z,84.50
2022-10-28T23:06:02.860Z,82.50
2022-10-28T23:08:29.559Z,84.10
2022-10-28T23:10:56.285Z,83.20
2022-10-28T23:13:22.952Z,84.50
2022-10-28T23:15:49.649Z,85.10
2022-10-28T23:18:16.318Z,84.40
2022-10-28T23:20:43.013Z,84.00
2022-10-28T23:23:09.693Z,83.40
2022-10-28T23:25:36.421Z,84.00
2022-10-28T23:28:06.044Z,85.50
2022-10-28T23:30:32.993Z,83.70
2022-10-28T23:32:59.726Z,83.70
2022-10-28T23:35:26.553Z,84.60
2022-10-28T23:37:53.663Z,85.00
2022-10-28T23:40:20.693Z,85.50
2022-10-28T23:42:47.418Z,85.10
2022-10-28T23:45:14.237Z,84.70
2022-10-28T23:47:40.985Z,85.80
2022-10-28T23:50:10.937Z,86.60
2022-10-28T23:52:37.925Z,85.30
2022-10-28T23:55:07.112Z,85.90
2022-10-28T23:57:33.825Z,85.70
